Time;durP1;ratioP1;P1;durP2;ratioP2;P2;SDS_P1;SDS_P2;PMS_P1;PMS_P2;Temp;Humidity;BMP_temperature;BMP_pressure;BME280_temperature;BME280_humidity;BME280_pressure;Samples;Min_cycle;Max_cycle;Signal;HPM_P1;HPM_P2
2021/12/16 00:03:17;;;;;;;25.38;15.27;;;14.20;92.80;;;;;;5089850;28;44750;-75
2021/12/16 00:06:08;;;;;;;28.98;16.80;;;14.60;92.20;;;;;;5091965;28;44956;-75
2021/12/16 00:08:38;;;;;;;30.10;17.08;;;14.30;92.10;;;;;;5086307;28;45450;-76
2021/12/16 00:11:17;;;;;;;30.50;17.45;;;14.10;93.10;;;;;;5092574;28;44871;-76
2021/12/16 00:19:47;;;;;;;29.13;15.43;;;14.80;90.90;;;;;;5052957;28;45197;-75
2021/12/16 00:31:02;;;;;;;33.00;16.60;;;15.20;90.30;;;;;;5079198;28;45046;-76
2021/12/16 00:33:35;;;;;;;29.35;15.50;;;15.10;90.10;;;;;;5082826;28;44871;-76
2021/12/16 00:36:05;;;;;;;26.20;16.10;;;14.90;90.90;;;;;;5092231;28;44765;-75
2021/12/16 00:38:33;;;;;;;23.25;14.85;;;14.70;91.30;;;;;;5091678;28;44769;-75
2021/12/16 00:41:00;;;;;;;25.90;15.50;;;14.90;90.70;;;;;;5091186;28;46580;-75
2021/12/16 00:43:34;;;;;;;26.00;16.02;;;15.00;90.00;;;;;;5081282;28;45085;-75
2021/12/16 00:46:14;;;;;;;27.70;15.85;;;14.60;91.30;;;;;;5083634;28;44751;-76
2021/12/16 00:49:05;;;;;;;27.38;15.07;;;14.60;91.40;;;;;;5090205;28;44779;-76
2021/12/16 00:54:18;;;;;;;27.05;14.38;;;14.80;90.80;;;;;;5083174;28;44575;-76
2021/12/16 00:56:50;;;;;;;23.40;14.90;;;15.20;89.20;;;;;;5090714;28;44672;-75
2021/12/16 00:59:19;;;;;;;28.10;15.70;;;15.10;89.30;;;;;;5092359;28;44664;-75
2021/12/16 01:01:54;;;;;;;27.00;16.20;;;15.20;90.00;;;;;;5089467;28;46811;-76
2021/12/16 01:05:12;;;;;;;29.58;16.25;;;15.00;90.10;;;;;;5087377;28;44984;-76
2021/12/16 01:07:59;;;;;;;29.45;16.90;;;14.60;91.10;;;;;;5083462;28;44923;-76
2021/12/16 01:35:19;;;;;;;27.80;17.13;;;14.60;92.20;;;;;;5067362;28;45225;-75
2021/12/16 01:38:29;;;;;;;32.17;16.77;;;14.40;93.20;;;;;;5091976;28;45022;-75
2021/12/16 01:41:42;;;;;;;28.55;16.27;;;14.10;93.60;;;;;;5086863;28;45102;-76
2021/12/16 01:49:40;;;;;;;29.40;16.38;;;14.80;91.00;;;;;;5087359;28;44796;-75
2021/12/16 01:52:29;;;;;;;26.25;15.25;;;14.80;91.30;;;;;;5089009;28;44675;-75
2021/12/16 01:55:07;;;;;;;28.48;15.73;;;15.00;90.40;;;;;;5090337;28;44949;-75
2021/12/16 01:57:40;;;;;;;28.42;16.10;;;14.90;91.10;;;;;;5087415;28;45653;-75
2021/12/16 02:00:13;;;;;;;30.75;17.25;;;15.10;90.40;;;;;;5090007;28;44999;-75
2021/12/16 02:02:45;;;;;;;28.80;16.45;;;14.80;90.60;;;;;;5082877;28;45052;-75
2021/12/16 02:05:30;;;;;;;26.27;16.33;;;14.60;91.30;;;;;;5091273;28;44807;-75
2021/12/16 02:10:56;;;;;;;24.48;14.40;;;14.70;91.50;;;;;;5085577;28;44733;-75
2021/12/16 02:13:47;;;;;;;30.63;15.38;;;15.20;89.80;;;;;;5090221;28;44877;-75
2021/12/16 02:27:35;;;;;;;35.05;16.10;;;15.30;87.30;;;;;;5089610;28;44692;-75
2021/12/16 02:33:13;;;;;;;25.05;15.05;;;15.10;88.90;;;;;;5072005;28;44739;-75
2021/12/16 02:35:45;;;;;;;26.83;15.68;;;15.30;89.30;;;;;;5090290;28;45045;-75
2021/12/16 02:38:16;;;;;;;29.92;16.65;;;15.20;89.60;;;;;;5090634;28;44866;-75
2021/12/16 02:40:46;;;;;;;28.77;16.60;;;14.70;91.00;;;;;;5088854;28;45132;-75
2021/12/16 02:43:38;;;;;;;27.15;15.98;;;14.90;90.00;;;;;;5080645;28;44711;-75
2021/12/16 02:48:49;;;;;;;24.70;14.48;;;15.20;88.70;;;;;;5082972;28;44689;-76
2021/12/16 02:51:19;;;;;;;24.70;15.10;;;15.20;88.70;;;;;;5082739;28;46612;-76
2021/12/16 02:53:50;;;;;;;30.00;16.80;;;14.90;89.60;;;;;;5074001;28;46163;-76
2021/12/16 02:56:18;;;;;;;27.05;15.73;;;14.70;90.50;;;;;;5089066;28;44640;-76
2021/12/16 02:58:49;;;;;;;24.83;14.90;;;14.40;90.80;;;;;;5089423;28;44674;-75
2021/12/16 03:01:20;;;;;;;28.45;15.57;;;14.60;91.30;;;;;;5084209;28;45523;-75
2021/12/16 03:03:47;;;;;;;26.38;15.45;;;14.80;90.70;;;;;;5085656;28;45666;-75
2021/12/16 03:06:15;;;;;;;28.70;16.73;;;14.80;90.40;;;;;;5089685;28;44746;-76
2021/12/16 03:08:43;;;;;;;25.98;15.05;;;15.10;89.10;;;;;;5084122;28;44991;-76
2021/12/16 03:11:25;;;;;;;26.05;15.32;;;14.90;90.30;;;;;;5090375;28;45211;-76
2021/12/16 03:14:19;;;;;;;27.95;16.17;;;15.00;90.10;;;;;;5088553;28;44668;-76
2021/12/16 03:16:58;;;;;;;28.80;15.60;;;14.70;90.00;;;;;;5081093;28;45041;-75
2021/12/16 03:19:37;;;;;;;25.73;14.75;;;15.00;89.70;;;;;;5087960;28;44793;-75
2021/12/16 03:22:06;;;;;;;29.80;16.35;;;15.00;87.70;;;;;;5087021;28;45325;-75
2021/12/16 03:25:01;;;;;;;27.13;15.35;;;14.80;90.00;;;;;;5088650;28;44881;-75
2021/12/16 03:33:32;;;;;;;22.85;14.10;;;14.60;90.40;;;;;;5070976;28;45511;-76
2021/12/16 03:36:07;;;;;;;27.33;15.82;;;14.90;90.00;;;;;;5088156;28;44965;-76
2021/12/16 03:38:37;;;;;;;28.17;16.50;;;14.90;88.60;;;;;;5090061;28;44882;-75
2021/12/16 03:41:05;;;;;;;28.75;15.13;;;14.40;90.80;;;;;;5088835;28;45196;-75
2021/12/16 03:43:36;;;;;;;26.02;15.45;;;14.60;90.80;;;;;;5088781;28;46416;-75
2021/12/16 03:48:55;;;;;;;31.30;16.42;;;15.10;89.00;;;;;;5089129;28;44883;-76
2021/12/16 03:51:26;;;;;;;27.45;15.02;;;14.80;88.70;;;;;;5084875;28;45120;-76
2021/12/16 03:53:56;;;;;;;26.73;15.90;;;14.70;90.10;;;;;;5085227;28;45399;-76
2021/12/16 03:56:24;;;;;;;28.05;16.60;;;14.80;89.10;;;;;;5087319;28;45073;-75
2021/12/16 03:58:53;;;;;;;27.52;15.63;;;14.50;90.40;;;;;;5089002;28;44837;-75
2021/12/16 04:01:25;;;;;;;27.80;16.33;;;14.40;90.60;;;;;;5080655;28;45126;-75
2021/12/16 04:03:52;;;;;;;29.17;16.10;;;14.30;90.90;;;;;;5091101;28;46977;-75
2021/12/16 04:06:21;;;;;;;24.42;14.90;;;14.60;90.40;;;;;;5082514;28;44883;-76
2021/12/16 04:08:52;;;;;;;24.70;15.40;;;15.10;89.40;;;;;;5092154;28;44617;-76
2021/12/16 04:11:23;;;;;;;24.88;14.82;;;15.30;87.30;;;;;;5086415;28;44699;-76
2021/12/16 04:13:56;;;;;;;25.15;14.48;;;15.00;87.70;;;;;;5092913;28;45324;-76
2021/12/16 04:16:25;;;;;;;23.00;14.65;;;15.00;88.70;;;;;;5089204;28;45101;-75
2021/12/16 04:18:52;;;;;;;28.55;15.95;;;15.10;88.50;;;;;;5091535;28;44799;-75
2021/12/16 04:21:21;;;;;;;29.42;16.27;;;15.20;87.10;;;;;;5092213;28;44788;-75
2021/12/16 04:23:49;;;;;;;24.20;15.00;;;15.30;86.60;;;;;;5092308;28;45383;-76
2021/12/16 04:26:17;;;;;;;21.02;13.18;;;15.10;87.80;;;;;;5092780;28;44876;-76
2021/12/16 04:28:43;;;;;;;28.80;15.43;;;15.20;87.40;;;;;;5091790;28;44723;-76
2021/12/16 04:31:12;;;;;;;24.70;14.93;;;15.30;85.90;;;;;;5091551;28;44931;-76
2021/12/16 04:33:39;;;;;;;23.10;14.82;;;15.10;86.80;;;;;;5090913;28;46645;-76
2021/12/16 04:36:08;;;;;;;31.00;15.80;;;15.20;86.60;;;;;;5091144;28;44734;-76
2021/12/16 04:38:36;;;;;;;21.55;13.63;;;14.90;87.70;;;;;;5091700;28;44899;-76
2021/12/16 04:41:05;;;;;;;26.35;15.30;;;15.10;87.20;;;;;;5091275;28;45057;-75
2021/12/16 04:43:39;;;;;;;28.58;15.93;;;14.80;88.00;;;;;;5092016;28;46638;-76
2021/12/16 04:46:07;;;;;;;27.80;15.52;;;14.60;90.20;;;;;;5081594;28;44686;-76
2021/12/16 04:48:36;;;;;;;27.77;15.52;;;14.30;90.70;;;;;;5092803;28;44596;-76
2021/12/16 04:51:04;;;;;;;22.88;15.00;;;14.60;90.00;;;;;;5092309;28;44930;-76
2021/12/16 04:53:31;;;;;;;27.17;15.75;;;14.90;88.70;;;;;;5082734;28;47549;-75
2021/12/16 04:55:58;;;;;;;28.02;15.38;;;14.90;87.90;;;;;;5075535;28;44654;-75
2021/12/16 04:58:26;;;;;;;22.85;13.68;;;14.80;87.80;;;;;;5089125;28;44635;-75
2021/12/16 05:00:54;;;;;;;25.70;15.43;;;14.80;88.90;;;;;;5088191;28;44694;-76
2021/12/16 05:03:23;;;;;;;28.25;16.45;;;15.10;87.20;;;;;;5085926;28;46383;-76
2021/12/16 05:05:51;;;;;;;26.70;14.88;;;15.20;86.60;;;;;;5090183;28;44977;-76
2021/12/16 05:08:18;;;;;;;26.13;14.45;;;15.10;86.10;;;;;;5090350;28;44884;-76
2021/12/16 05:10:48;;;;;;;27.13;15.68;;;15.20;87.00;;;;;;5081452;28;45038;-77
2021/12/16 05:13:18;;;;;;;25.80;15.60;;;14.80;89.00;;;;;;5090945;28;45187;-77
2021/12/16 05:18:19;;;;;;;24.70;15.32;;;14.50;90.20;;;;;;5040717;28;45261;-76
2021/12/16 05:20:46;;;;;;;24.60;14.75;;;14.50;90.70;;;;;;5033934;28;45311;-76
2021/12/16 05:26:16;;;;;;;29.75;14.70;;;14.60;90.40;;;;;;5037512;28;45281;-76
2021/12/16 05:28:46;;;;;;;27.70;15.10;;;14.50;90.60;;;;;;5033640;28;45327;-76
2021/12/16 05:31:14;;;;;;;26.15;14.82;;;14.50;90.80;;;;;;5048029;28;46349;-76
2021/12/16 05:33:42;;;;;;;28.27;14.93;;;14.50;90.40;;;;;;5044189;28;46564;-76
2021/12/16 05:36:10;;;;;;;23.85;13.88;;;14.50;90.90;;;;;;5043256;28;45691;-76
2021/12/16 05:38:39;;;;;;;22.70;14.73;;;14.90;90.20;;;;;;5039570;28;45369;-75
2021/12/16 05:41:09;;;;;;;27.35;15.35;;;14.90;88.70;;;;;;5047367;28;45475;-75
2021/12/16 05:43:37;;;;;;;25.65;14.00;;;14.80;89.00;;;;;;5046016;28;45583;-75
2021/12/16 05:46:05;;;;;;;27.50;15.95;;;14.90;90.20;;;;;;5047149;28;45264;-75
2021/12/16 05:48:35;;;;;;;24.33;14.98;;;15.00;87.30;;;;;;5046615;28;45210;-75
2021/12/16 05:51:06;;;;;;;27.02;14.48;;;14.60;87.60;;;;;;5046781;28;45467;-75
2021/12/16 05:53:34;;;;;;;24.13;14.48;;;14.70;85.70;;;;;;5044982;28;45474;-75
2021/12/16 05:56:03;;;;;;;25.08;13.68;;;14.60;85.50;;;;;;5042107;28;45201;-76
2021/12/16 05:58:31;;;;;;;26.23;15.35;;;14.70;85.10;;;;;;5036839;28;45270;-75
2021/12/16 06:01:01;;;;;;;27.15;16.08;;;14.60;86.10;;;;;;5041505;28;46057;-76
2021/12/16 06:03:30;;;;;;;29.83;15.25;;;14.10;89.60;;;;;;5042627;28;46475;-76
2021/12/16 06:05:57;;;;;;;24.50;14.02;;;14.60;89.90;;;;;;5043782;28;45217;-76
2021/12/16 06:08:25;;;;;;;24.98;14.30;;;14.60;88.60;;;;;;5046767;28;45516;-76
2021/12/16 06:13:44;;;;;;;22.15;13.73;;;14.50;88.40;;;;;;5038999;28;45782;-76
2021/12/16 06:27:12;;;;;;;25.92;13.90;;;15.00;85.90;;;;;;5066325;28;45292;-77
2021/12/16 06:29:44;;;;;;;23.05;13.23;;;14.90;85.80;;;;;;5068052;28;45586;-77
2021/12/16 06:32:11;;;;;;;25.98;14.75;;;14.80;87.30;;;;;;5062413;28;45418;-76
2021/12/16 06:34:40;;;;;;;21.60;13.57;;;15.00;85.90;;;;;;5065164;28;48543;-78
2021/12/16 06:37:15;;;;;;;25.10;14.05;;;14.80;88.40;;;;;;5067835;28;45214;-78
2021/12/16 06:39:48;;;;;;;23.63;13.77;;;14.90;87.50;;;;;;5063218;28;45195;-79
2021/12/16 06:42:19;;;;;;;26.13;14.95;;;14.90;86.50;;;;;;5061119;28;45286;-77
2021/12/16 06:44:52;;;;;;;24.25;14.15;;;14.90;87.70;;;;;;5058544;28;46231;-76
2021/12/16 06:47:23;;;;;;;24.60;13.48;;;14.90;85.60;;;;;;5065910;28;45355;-76
2021/12/16 06:49:53;;;;;;;25.35;14.18;;;14.90;87.00;;;;;;5065946;28;45310;-76
2021/12/16 06:52:26;;;;;;;25.38;13.75;;;14.90;86.20;;;;;;5058681;28;46040;-76
2021/12/16 06:55:06;;;;;;;23.67;13.45;;;15.00;85.90;;;;;;5067338;28;46332;-76
2021/12/16 06:57:42;;;;;;;24.98;14.20;;;14.90;86.40;;;;;;5067689;28;45254;-76
2021/12/16 07:00:22;;;;;;;24.38;14.45;;;14.90;87.10;;;;;;5054272;28;45196;-76
2021/12/16 07:02:58;;;;;;;25.83;13.70;;;15.00;86.00;;;;;;5059573;28;45691;-77
2021/12/16 07:05:29;;;;;;;24.20;13.23;;;15.10;84.50;;;;;;5067012;28;46166;-77
2021/12/16 07:07:56;;;;;;;25.90;14.55;;;15.10;84.80;;;;;;5059032;28;45432;-76
2021/12/16 07:10:23;;;;;;;26.33;13.07;;;15.00;86.50;;;;;;5065260;28;46137;-76
2021/12/16 07:12:52;;;;;;;22.88;13.90;;;15.00;85.10;;;;;;5052202;28;45346;-76
2021/12/16 07:15:26;;;;;;;21.42;13.02;;;15.00;84.90;;;;;;5046723;28;46361;-76
2021/12/16 07:17:57;;;;;;;25.67;14.93;;;15.00;86.00;;;;;;5056907;28;45752;-76
2021/12/16 07:20:27;;;;;;;28.98;15.80;;;14.90;83.50;;;;;;5057195;28;46386;-76
2021/12/16 07:22:54;;;;;;;28.83;15.60;;;13.90;86.90;;;;;;5055482;28;45551;-77
2021/12/16 07:25:21;;;;;;;27.05;14.70;;;13.30;90.60;;;;;;5057059;28;48455;-77
2021/12/16 07:27:49;;;;;;;27.08;14.65;;;13.50;91.50;;;;;;5058321;28;45827;-78
2021/12/16 07:30:18;;;;;;;24.75;14.73;;;13.80;90.50;;;;;;5063033;28;45394;-77
2021/12/16 07:32:46;;;;;;;27.08;15.23;;;14.10;90.10;;;;;;5056910;28;45706;-76
2021/12/16 07:35:17;;;;;;;24.33;14.73;;;13.60;89.10;;;;;;5059504;28;47356;-76
2021/12/16 07:37:44;;;;;;;26.63;13.85;;;14.40;89.70;;;;;;5064237;28;45621;-76
2021/12/16 07:40:14;;;;;;;27.25;14.68;;;14.90;87.10;;;;;;5060538;28;45509;-76
2021/12/16 07:42:48;;;;;;;26.02;13.88;;;15.10;85.70;;;;;;5066368;28;45392;-76
2021/12/16 07:45:18;;;;;;;29.23;14.63;;;15.10;84.50;;;;;;5069433;28;45413;-76
2021/12/16 07:47:46;;;;;;;25.33;13.65;;;15.20;83.80;;;;;;5063071;28;45489;-76
2021/12/16 07:50:16;;;;;;;23.52;14.15;;;15.10;84.20;;;;;;5060182;28;45264;-76
2021/12/16 07:52:43;;;;;;;24.70;14.13;;;15.00;85.50;;;;;;5067823;28;45318;-76
2021/12/16 07:55:11;;;;;;;26.50;14.93;;;15.20;84.00;;;;;;5057347;28;46247;-76
2021/12/16 07:57:39;;;;;;;25.00;14.63;;;15.20;83.80;;;;;;5066551;28;45279;-76
2021/12/16 08:00:13;;;;;;;26.83;14.13;;;15.00;84.60;;;;;;5060274;28;45204;-77
2021/12/16 08:02:40;;;;;;;24.65;14.50;;;15.20;83.80;;;;;;5061124;28;45538;-77
2021/12/16 08:05:10;;;;;;;21.58;12.93;;;15.30;83.80;;;;;;5058481;28;46868;-77
2021/12/16 08:07:39;;;;;;;20.63;12.90;;;15.20;81.80;;;;;;5064657;28;45977;-77
2021/12/16 08:10:10;;;;;;;21.25;13.13;;;15.10;83.90;;;;;;5067274;28;45446;-77
2021/12/16 08:12:37;;;;;;;26.85;13.55;;;15.00;84.20;;;;;;5057232;28;45429;-77
2021/12/16 08:15:05;;;;;;;26.70;13.20;;;15.10;83.60;;;;;;5060007;28;47793;-77
2021/12/16 08:17:32;;;;;;;23.02;13.30;;;15.00;83.90;;;;;;5067754;28;46226;-77
2021/12/16 08:19:59;;;;;;;25.08;12.63;;;15.10;82.90;;;;;;5061482;28;45356;-77
2021/12/16 08:22:28;;;;;;;24.55;13.07;;;15.00;83.50;;;;;;5063349;28;45155;-77
2021/12/16 08:24:55;;;;;;;23.35;12.23;;;15.00;82.70;;;;;;5053109;28;47928;-77
2021/12/16 08:27:23;;;;;;;25.95;13.80;;;15.00;83.20;;;;;;5065828;28;45517;-77
2021/12/16 08:29:50;;;;;;;21.70;12.13;;;15.00;83.40;;;;;;5058169;28;45300;-77
2021/12/16 08:32:17;;;;;;;22.33;13.07;;;15.10;82.50;;;;;;5068653;28;45224;-77
2021/12/16 08:34:45;;;;;;;19.35;11.45;;;15.00;83.10;;;;;;5065099;28;45448;-77
2021/12/16 08:37:15;;;;;;;23.42;12.80;;;15.00;82.10;;;;;;5055632;28;45327;-77
2021/12/16 08:39:47;;;;;;;20.27;12.40;;;15.00;82.90;;;;;;5066748;28;45264;-77
2021/12/16 08:42:19;;;;;;;21.58;11.57;;;14.90;82.00;;;;;;5069913;28;45424;-78
2021/12/16 08:44:48;;;;;;;26.17;13.25;;;14.80;83.80;;;;;;5066325;28;46195;-77
2021/12/16 08:47:19;;;;;;;21.05;11.70;;;15.00;82.40;;;;;;5059576;28;45908;-77
2021/12/16 08:49:46;;;;;;;19.55;12.00;;;15.10;81.70;;;;;;5057078;28;45290;-77
2021/12/16 08:52:16;;;;;;;21.52;12.80;;;14.90;82.20;;;;;;5063630;28;45360;-77
2021/12/16 08:54:44;;;;;;;24.52;13.35;;;14.90;81.80;;;;;;5063614;28;47620;-77
2021/12/16 08:57:12;;;;;;;26.90;12.65;;;14.90;82.90;;;;;;5067587;28;45659;-77
2021/12/16 08:59:39;;;;;;;23.55;12.85;;;15.10;82.10;;;;;;5064867;28;45140;-77
2021/12/16 09:02:08;;;;;;;23.98;13.07;;;15.00;82.60;;;;;;5056358;28;45503;-77
2021/12/16 09:04:35;;;;;;;20.77;12.57;;;15.00;83.80;;;;;;5062992;28;47369;-77
2021/12/16 09:07:06;;;;;;;22.92;12.38;;;14.90;83.50;;;;;;5062054;28;45505;-77
2021/12/16 09:09:35;;;;;;;23.75;12.82;;;14.70;85.20;;;;;;5064392;28;45308;-77
2021/12/16 09:12:11;;;;;;;21.95;14.00;;;14.60;85.00;;;;;;5058648;28;45658;-77
2021/12/16 09:14:43;;;;;;;26.27;14.27;;;14.80;84.50;;;;;;5060185;28;47495;-78
2021/12/16 09:17:15;;;;;;;26.92;14.13;;;14.60;86.20;;;;;;5056587;28;45413;-77
2021/12/16 09:19:46;;;;;;;26.45;14.55;;;14.60;86.90;;;;;;5062332;28;45302;-77
2021/12/16 09:22:17;;;;;;;23.65;14.07;;;14.50;87.70;;;;;;5060488;28;45333;-77
2021/12/16 09:24:44;;;;;;;26.85;14.75;;;14.40;88.30;;;;;;5061870;28;48080;-77
2021/12/16 09:27:13;;;;;;;23.00;13.50;;;14.40;89.20;;;;;;5056497;28;45264;-77
2021/12/16 09:29:41;;;;;;;26.77;14.32;;;14.30;89.70;;;;;;5060337;28;45337;-77
2021/12/16 09:32:08;;;;;;;23.95;14.65;;;14.30;90.10;;;;;;5059346;28;45464;-77
2021/12/16 09:34:36;;;;;;;25.25;14.80;;;14.30;90.30;;;;;;5061401;28;48431;-77
2021/12/16 09:37:04;;;;;;;27.33;14.65;;;14.30;90.40;;;;;;5060639;28;45254;-77
2021/12/16 09:39:32;;;;;;;25.83;14.93;;;14.20;90.60;;;;;;5067642;28;45302;-77
2021/12/16 09:41:59;;;;;;;28.95;15.63;;;14.20;91.00;;;;;;5053449;28;45371;-77
2021/12/16 09:44:29;;;;;;;27.45;14.90;;;14.40;90.20;;;;;;5062904;28;46221;-77
2021/12/16 09:46:59;;;;;;;23.67;14.43;;;14.40;90.40;;;;;;5059680;28;45655;-77
2021/12/16 09:49:27;;;;;;;23.00;12.32;;;14.40;90.30;;;;;;5055496;28;45330;-77
2021/12/16 09:51:56;;;;;;;25.17;13.73;;;14.50;90.30;;;;;;5058459;28;45381;-77
2021/12/16 09:54:26;;;;;;;27.02;14.05;;;14.60;89.90;;;;;;5063323;28;45379;-77
2021/12/16 09:56:54;;;;;;;29.00;14.00;;;14.60;89.50;;;;;;5064626;28;45235;-77
2021/12/16 09:59:23;;;;;;;23.65;15.00;;;14.50;90.00;;;;;;5056302;28;45298;-77
2021/12/16 10:01:54;;;;;;;23.33;13.20;;;14.40;90.20;;;;;;5057571;28;45398;-77
2021/12/16 10:04:27;;;;;;;24.23;14.00;;;14.40;90.30;;;;;;5053827;28;47595;-77
2021/12/16 10:06:57;;;;;;;26.17;14.35;;;14.40;90.50;;;;;;5056620;28;45802;-77
2021/12/16 10:09:24;;;;;;;23.13;13.75;;;14.50;90.20;;;;;;5065703;28;45399;-77
2021/12/16 10:11:56;;;;;;;22.30;13.75;;;14.60;90.20;;;;;;5068507;28;45160;-77
2021/12/16 10:14:44;;;;;;;29.33;13.77;;;15.00;88.70;;;;;;5061394;28;48188;-77
2021/12/16 10:17:23;;;;;;;19.80;11.73;;;15.10;87.80;;;;;;5046426;28;45208;-77
2021/12/16 10:19:51;;;;;;;18.83;12.18;;;15.00;87.80;;;;;;5063983;28;45291;-77
2021/12/16 10:22:22;;;;;;;18.83;12.07;;;15.10;87.50;;;;;;5067484;28;45411;-77
2021/12/16 10:24:50;;;;;;;22.77;11.93;;;15.20;86.70;;;;;;5067001;28;46330;-77
2021/12/16 10:27:19;;;;;;;19.13;11.55;;;15.20;87.30;;;;;;5063446;28;45882;-77
2021/12/16 10:29:49;;;;;;;17.92;11.50;;;15.40;86.50;;;;;;5062112;28;45231;-77
2021/12/16 10:32:38;;;;;;;21.88;11.93;;;15.50;85.90;;;;;;5063603;28;45481;-77
2021/12/16 10:35:10;;;;;;;21.17;12.50;;;15.50;85.60;;;;;;5059841;28;46086;-77
2021/12/16 10:37:48;;;;;;;20.20;11.52;;;15.50;85.80;;;;;;5060687;28;45215;-78
2021/12/16 10:40:33;;;;;;;19.83;11.90;;;15.40;86.20;;;;;;5060124;28;45357;-78
2021/12/16 10:43:04;;;;;;;20.77;12.13;;;15.40;86.40;;;;;;5067777;28;45179;-78
2021/12/16 10:45:38;;;;;;;21.88;10.93;;;15.30;87.30;;;;;;5055537;28;47214;-78
2021/12/16 10:48:25;;;;;;;22.70;12.70;;;15.40;86.80;;;;;;5064961;28;45321;-78
2021/12/16 10:51:02;;;;;;;18.70;11.43;;;15.30;87.00;;;;;;5060411;28;45231;-78
2021/12/16 10:53:51;;;;;;;26.40;13.50;;;15.40;87.00;;;;;;5056011;28;45493;-78
2021/12/16 10:56:23;;;;;;;25.42;13.45;;;15.30;87.30;;;;;;5059725;28;47488;-78
2021/12/16 10:58:53;;;;;;;21.65;12.68;;;15.30;87.20;;;;;;5056086;28;45193;-78
2021/12/16 11:01:42;;;;;;;23.33;13.98;;;15.40;87.40;;;;;;5058131;28;45437;-78
2021/12/16 11:04:13;;;;;;;22.40;13.63;;;15.30;88.20;;;;;;5065435;28;45274;-78
2021/12/16 11:06:43;;;;;;;26.05;14.60;;;15.30;88.00;;;;;;5062436;28;48112;-78
2021/12/16 11:09:30;;;;;;;25.30;13.85;;;15.20;88.30;;;;;;5067250;28;45659;-78
2021/12/16 11:12:13;;;;;;;28.85;15.05;;;15.20;88.70;;;;;;5053430;28;45536;-78
2021/12/16 11:14:43;;;;;;;28.50;15.68;;;15.20;88.70;;;;;;5054908;28;45354;-78
2021/12/16 11:17:17;;;;;;;26.10;15.20;;;15.20;88.40;;;;;;5061599;28;47175;-78
2021/12/16 11:19:56;;;;;;;30.45;17.02;;;15.20;89.20;;;;;;5055414;28;45350;-78
2021/12/16 11:22:26;;;;;;;26.23;15.27;;;15.10;89.70;;;;;;5056948;28;45226;-78
2021/12/16 11:24:54;;;;;;;27.27;15.15;;;15.30;89.30;;;;;;5060367;28;45701;-78
2021/12/16 11:27:33;;;;;;;28.17;15.00;;;15.40;88.60;;;;;;5061112;28;46642;-78
2021/12/16 11:30:34;;;;;;;29.67;16.02;;;15.40;88.40;;;;;;5064412;28;45913;-78
2021/12/16 11:33:15;;;;;;;28.60;15.43;;;15.30;88.90;;;;;;5063935;28;45234;-78
2021/12/16 11:35:55;;;;;;;29.52;14.75;;;15.40;88.60;;;;;;5067138;28;45152;-78
2021/12/16 11:38:27;;;;;;;29.02;15.45;;;15.30;89.20;;;;;;5065681;28;46587;-78
2021/12/16 11:41:02;;;;;;;31.63;17.55;;;15.20;89.50;;;;;;5066310;28;45290;-78
2021/12/16 11:43:44;;;;;;;32.70;16.80;;;15.20;89.40;;;;;;5059383;28;45293;-78
2021/12/16 11:46:19;;;;;;;30.92;16.73;;;15.30;88.90;;;;;;5066082;28;45330;-78
2021/12/16 11:48:46;;;;;;;32.03;16.75;;;15.50;88.40;;;;;;5060915;28;48236;-78
2021/12/16 11:51:18;;;;;;;33.85;16.67;;;15.30;89.10;;;;;;5058167;28;45243;-78
2021/12/16 11:53:49;;;;;;;36.55;18.20;;;15.30;89.20;;;;;;5059032;28;45278;-78
2021/12/16 11:56:18;;;;;;;33.65;17.85;;;15.30;89.40;;;;;;5047533;28;45308;-78
2021/12/16 11:58:49;;;;;;;31.08;18.48;;;15.40;88.80;;;;;;5055987;28;47020;-77
2021/12/16 12:01:21;;;;;;;36.25;17.95;;;15.30;88.70;;;;;;5056920;28;45520;-78
2021/12/16 12:03:50;;;;;;;33.33;18.60;;;15.20;89.70;;;;;;5043026;28;45245;-78
2021/12/16 12:06:25;;;;;;;36.10;18.25;;;15.20;89.20;;;;;;5062146;28;45501;-78
2021/12/16 12:08:55;;;;;;;35.33;19.50;;;15.20;89.40;;;;;;5062498;28;47961;-78
2021/12/16 12:11:24;;;;;;;40.47;20.52;;;15.10;90.00;;;;;;5061282;28;45248;-78
2021/12/16 12:13:57;;;;;;;32.97;18.40;;;15.20;89.80;;;;;;5060308;28;45370;-78
2021/12/16 12:16:28;;;;;;;36.83;19.30;;;15.20;89.40;;;;;;5051832;28;45477;-78
2021/12/16 12:18:58;;;;;;;34.20;19.50;;;15.10;90.00;;;;;;5055135;28;47456;-78
2021/12/16 12:21:32;;;;;;;39.22;19.48;;;15.20;90.00;;;;;;5060518;28;45536;-78
2021/12/16 12:24:03;;;;;;;33.88;19.02;;;15.30;89.20;;;;;;5060031;28;45342;-78
2021/12/16 12:26:33;;;;;;;33.83;18.75;;;15.20;89.90;;;;;;5056381;28;45330;-78
2021/12/16 12:29:04;;;;;;;32.22;18.60;;;15.10;90.10;;;;;;5070934;28;47773;-77
2021/12/16 12:31:48;;;;;;;38.58;20.45;;;15.10;90.10;;;;;;5066130;28;45356;-78
2021/12/16 12:34:16;;;;;;;29.83;18.48;;;15.10;90.20;;;;;;5063359;28;45335;-78
2021/12/16 12:36:46;;;;;;;36.00;19.58;;;15.00;90.40;;;;;;5068753;28;45538;-77
2021/12/16 12:39:18;;;;;;;30.95;18.85;;;15.10;90.20;;;;;;5062350;28;48093;-77
2021/12/16 12:41:46;;;;;;;35.95;19.75;;;15.10;90.30;;;;;;5060041;28;45599;-77
2021/12/16 12:44:15;;;;;;;31.00;18.67;;;15.00;90.50;;;;;;5060408;28;45354;-77
2021/12/16 12:46:44;;;;;;;35.80;18.50;;;15.00;90.60;;;;;;5047178;28;45315;-77
2021/12/16 12:49:15;;;;;;;34.63;19.88;;;15.10;90.40;;;;;;5065008;28;48909;-76
2021/12/16 12:51:46;;;;;;;37.78;18.92;;;15.10;90.50;;;;;;5058162;28;45401;-76
2021/12/16 12:54:23;;;;;;;33.55;20.23;;;15.10;90.50;;;;;;5058378;28;45219;-76
2021/12/16 12:56:52;;;;;;;34.00;18.33;;;15.10;90.40;;;;;;5052947;28;45169;-77
2021/12/16 12:59:21;;;;;;;32.58;19.17;;;15.10;90.40;;;;;;5061710;28;45333;-76
2021/12/16 13:01:50;;;;;;;31.23;18.33;;;15.20;90.20;;;;;;5064620;28;45337;-77
2021/12/16 13:04:23;;;;;;;37.53;19.40;;;15.20;90.30;;;;;;5064252;28;45463;-77
2021/12/16 13:06:56;;;;;;;32.05;17.98;;;15.30;90.30;;;;;;5066131;28;45157;-77
2021/12/16 13:09:31;;;;;;;36.33;19.25;;;15.30;90.00;;;;;;5065872;28;47066;-78
2021/12/16 13:12:00;;;;;;;31.50;18.60;;;15.30;90.40;;;;;;5069145;28;45171;-77
2021/12/16 13:14:43;;;;;;;33.28;18.38;;;15.40;90.10;;;;;;5069402;28;45386;-77
2021/12/16 13:17:40;;;;;;;34.13;19.00;;;15.30;90.00;;;;;;5067014;28;45449;-77
2021/12/16 13:28:41;;;;;;;34.22;18.60;;;15.40;89.70;;;;;;5065104;28;45799;-77
2021/12/16 13:31:25;;;;;;;34.22;19.30;;;15.40;90.00;;;;;;5065404;28;47748;-77
2021/12/16 13:33:55;;;;;;;33.70;18.38;;;15.40;89.80;;;;;;5063535;28;45305;-77
2021/12/16 13:36:40;;;;;;;37.25;18.25;;;15.40;90.00;;;;;;5063666;28;45155;-77
2021/12/16 13:39:14;;;;;;;33.08;18.83;;;15.30;90.00;;;;;;5059867;28;45219;-77
2021/12/16 13:41:57;;;;;;;34.78;19.08;;;15.30;90.40;;;;;;5056772;28;48202;-77
2021/12/16 13:44:50;;;;;;;41.03;20.40;;;15.30;90.00;;;;;;5054866;28;45223;-77
2021/12/16 13:47:31;;;;;;;29.70;17.27;;;15.40;90.10;;;;;;5067072;28;45184;-77
2021/12/16 14:02:14;;;;;;;39.40;19.33;;;15.40;90.20;;;;;;5173979;27;45416;-76
2021/12/16 14:05:00;;;;;;;37.33;19.17;;;15.30;90.20;;;;;;5173183;27;45170;-77
2021/12/16 14:07:55;;;;;;;36.50;19.00;;;15.30;90.20;;;;;;5162867;27;45267;-77
2021/12/16 14:10:42;;;;;;;43.20;19.15;;;15.30;90.20;;;;;;5144739;27;45399;-77
2021/12/16 14:16:27;;;;;;;38.13;19.75;;;15.20;90.40;;;;;;5145640;27;45463;-77
2021/12/16 14:39:49;;;;;;;39.30;19.40;;;15.30;90.50;;;;;;5165955;27;45254;-77
2021/12/16 14:45:17;;;;;;;37.88;20.13;;;15.00;91.10;;;;;;5160228;27;45364;-76
2021/12/16 14:48:08;;;;;;;43.75;21.30;;;15.10;90.90;;;;;;5149018;27;47593;-76
2021/12/16 14:50:38;;;;;;;39.70;18.42;;;15.10;90.90;;;;;;5160382;27;45303;-76
2021/12/16 14:53:20;;;;;;;37.25;19.05;;;15.10;90.80;;;;;;5159226;27;45182;-76
2021/12/16 14:55:48;;;;;;;40.08;19.90;;;15.10;90.70;;;;;;5164509;27;45397;-76
2021/12/16 14:58:19;;;;;;;36.30;19.92;;;15.20;90.50;;;;;;5161863;27;47430;-75
2021/12/16 15:00:49;;;;;;;42.45;20.70;;;15.20;90.40;;;;;;5159203;27;45341;-75
2021/12/16 15:03:19;;;;;;;44.58;20.63;;;15.40;90.30;;;;;;5164335;27;45379;-76
2021/12/16 15:05:49;;;;;;;39.35;19.65;;;15.20;90.50;;;;;;5161108;27;45193;-75
2021/12/16 15:08:25;;;;;;;41.78;20.45;;;15.10;90.90;;;;;;5170738;27;47919;-76
2021/12/16 15:10:52;;;;;;;46.10;19.42;;;15.20;90.70;;;;;;5155525;27;45282;-76
2021/12/16 15:13:25;;;;;;;41.20;20.02;;;15.20;90.70;;;;;;5144551;27;45258;-76
2021/12/16 15:38:17;;;;;;;41.92;20.08;;;15.10;90.60;;;;;;5146995;27;45233;-75
2021/12/16 15:40:58;;;;;;;43.95;19.83;;;15.10;90.70;;;;;;5146941;27;47828;-75
2021/12/16 15:43:31;;;;;;;46.97;21.15;;;15.00;91.10;;;;;;5148507;27;45339;-76